DIRECCIÓN GENERAL DE AERONÁUTICA CIVIL
DIRECCIÓN METEOROLÓGICA DE CHILE
INFORMACIÓN METAR Y TAF

FIR SANTIAGO

Estación: SCSE
METAR SCSE 022000Z 32008KT CAVOK 18/09 Q1016=

TAF SCSE 021610Z 0218/0318 28008KT CAVOK TX17/0218Z TN11/0310Z BECMG 0300/0302 12005KT BECMG 0302/0304 SCT012 TEMPO 0308/0312 VRB02KT BKN008 BECMG 0314/0316 28008KT=

Estación: SCER
NIL=

NIL=

Estación: SCRD
METAR SCRD 022000Z 16005KT 9999 SCT010 OVC100 13/11 Q1019=

TAF SCRD 021041Z 0212/0224 VRB02KT 9999 SCT010 BKN100 TX13/0218Z TN06 /0212Z TEMPO 0212/0215 06005KT 6000 -RA BKN008 OVC010 BECMG 0218/0220 21010KT SCT020 BKN150=

Estación: SCVM
METAR SCVM 022000Z 00000KT 9999 OVC070 15/12 Q1019=

TAF SCVM 021610Z 0218/0318 30008KT 9999 SCT040 BKN100 TX15/0218Z TN10/0311Z BECMG 0220/0222 26008KT CAVOK BECMG 0300/0302 15004KT TEMPO 0308/0312 VRB02KT 7000 SCT010 BECMG 0314/0316 30008KT=

Estación: SCTB
METAR SCTB 022000Z 22002KT 9999 4000S HZ OVC100 11/09 Q1020=

TAF SCTB 021105Z 0212/0224 VRB02KT 5000 RA SCT040 OVC060 TX13/0218Z TN09/0212Z BECMG 0216/0218 19006KT 8000 SHRA SCT060 OVC100=

Estación: SCEL
METAR SCEL 022000Z 18003KT 140V220 8000 OVC120 12/08 Q1019 NOSIG=

TAF SCEL 021610Z 0218/0318 19010KT 9999 SCT060 BKN110 TX13/0218Z TN05/0311Z BECMG 0301/0303 15005KT 8000 SCT160 BECMG 0306/0308 VRB02KT 5000 HZ TEMPO 0308/0312 2000 BR NSC BECMG 0312/0314 7000 SCT180=

Estación: SCSN
METAR SCSN 022000Z 22005KT 7000 SCT025 OVC150 13/12 Q1020=

TAF AMD SCSN 021342Z 0214/0224 14005KT 9999 SCT015 BKN100 TX15/0218Z TN10/0212Z TEMPO 0213/0216 06005KT 3000 DZ BKN003 OVC010 BECMG 0218/ 0220 21010KT SCT020 BKN150=

Estación: SCRG
METAR SCRG 312000Z 15008KT 9999 BKN120 11/06 Q1019=

TAF SCRG 311030Z 3112/3124 33005KT 5000 BR NSC TX15/3119Z TN06/3112Z TEMPO 3112/3114 19005KT 0500 FG BECMG 3115/3117 CAVOK BECMG 3119/3121 18008KT BKN140=

Estación: SCIC
METAR SCIC 022000Z 08004KT 9999 BKN030 BKN100 12/09 Q1019=

TAF SCIC 021041Z 0212/0224 06005KT 3000 RA BKN012 BKN020 TX13/0218Z TN10/0212Z BECMG 0218/0220 18010KT 9999 SCT025 BKN100=

Estación: SCCH
METAR SCCH 022000Z 02009KT 9999 BKN013 BKN080 12/09 Q1019=

TAF SCCH 021042Z 0212/0224 28005KT 9999 SCT012 BKN030 TX13/0218Z TN10 /0212Z TEMPO 0215/0218 02008KT 5000 SHRA BKN010 OVC025 BECMG 0218/ 0220 21008KT SCT025=

Estación: SCIE
METAR SCIE 022000Z 28008KT 240V300 9999 SCT033 SCT040 OVC100 12/07 Q1019=

TAF COR SCIE 021700Z 0218/0318 31010KT 9999 SCT020 BKN035 TX13/0218Z TN06/0311Z BECMG 0304/0306 36005KT SCT030 BECMG 0306/0308 5000 BR NSC TEMPO 0308/0312 15005KT 0500 FG BECMG 0313/0315 18008KT 9999 BKN015=

Estación: SCGE
METAR SCGE 021900Z 33016KT 9999 VCSH BKN013 13/07 Q1019=

TAF AMD SCGE 021621Z 0217/0224 34010KT 3000 SHRA BKN010 TX13/0218Z TN08/0212Z BECMG 0219/0221 9999 SCT010 BKN020=


Volver